Map

Track Data

SID SEASON NUMBER BASIN SUBBASIN NAME ISO_TIME NATURE LAT LON WMO_WIND WMO_PRES WMO_AGENCY TRACK_TYPE DIST2LAND LANDFALL IFLAG USA_AGENCY USA_ATCF_ID USA_LAT USA_LON USA_RECORD USA_STATUS USA_WIND USA_PRES USA_SSHS USA_R34_NE USA_R34_SE USA_R34_SW USA_R34_NW USA_R50_NE USA_R50_SE USA_R50_SW USA_R50_NW USA_R64_NE USA_R64_SE USA_R64_SW USA_R64_NW USA_POCI USA_ROCI USA_RMW USA_EYE TOKYO_LAT TOKYO_LON TOKYO_GRADE TOKYO_WIND TOKYO_PRES TOKYO_R50_DIR TOKYO_R50_LONG TOKYO_R50_SHORT TOKYO_R30_DIR TOKYO_R30_LONG TOKYO_R30_SHORT TOKYO_LAND CMA_LAT CMA_LON CMA_CAT CMA_WIND CMA_PRES HKO_LAT HKO_LON HKO_CAT HKO_WIND HKO_PRES NEWDELHI_LAT NEWDELHI_LON NEWDELHI_GRADE NEWDELHI_WIND NEWDELHI_PRES NEWDELHI_CI NEWDELHI_DP NEWDELHI_POCI REUNION_LAT REUNION_LON REUNION_TYPE REUNION_WIND REUNION_PRES REUNION_TNUM REUNION_CI REUNION_RMW REUNION_R34_NE REUNION_R34_SE REUNION_R34_SW REUNION_R34_NW REUNION_R50_NE REUNION_R50_SE REUNION_R50_SW REUNION_R50_NW REUNION_R64_NE REUNION_R64_SE REUNION_R64_SW REUNION_R64_NW BOM_LAT BOM_LON BOM_TYPE BOM_WIND BOM_PRES BOM_TNUM BOM_CI BOM_RMW BOM_R34_NE BOM_R34_SE BOM_R34_SW BOM_R34_NW BOM_R50_NE BOM_R50_SE BOM_R50_SW BOM_R50_NW BOM_R64_NE BOM_R64_SE BOM_R64_SW BOM_R64_NW BOM_ROCI BOM_POCI BOM_EYE BOM_POS_METHOD BOM_PRES_METHOD NADI_LAT NADI_LON NADI_CAT NADI_WIND NADI_PRES WELLINGTON_LAT WELLINGTON_LON WELLINGTON_WIND WELLINGTON_PRES DS824_LAT DS824_LON DS824_STAGE DS824_WIND DS824_PRES TD9636_LAT TD9636_LON TD9636_STAGE TD9636_WIND TD9636_PRES TD9635_LAT TD9635_LON TD9635_WIND TD9635_PRES TD9635_ROCI NEUMANN_LAT NEUMANN_LON NEUMANN_CLASS NEUMANN_WIND NEUMANN_PRES MLC_LAT MLC_LON MLC_CLASS MLC_WIND MLC_PRES USA_GUST BOM_GUST BOM_GUST_PER REUNION_GUST REUNION_GUST_PER USA_SEAHGT USA_SEARAD_NE USA_SEARAD_SE USA_SEARAD_SW USA_SEARAD_NW STORM_SPEED STORM_DIR
1902241N21123 1902 32 WP MM NOT_NAMED 1902-08-29 04:00:00 NR 20.7000 122.900 main 246 226 __________O___ -1 20.7000 122.900 7 6 335
1902241N21123 1902 32 WP MM NOT_NAMED 1902-08-29 06:00:00 NR 20.8897 122.802 main 226 201 __________P___ -1 20.8897 122.802 7 6 336
1902241N21123 1902 32 WP MM NOT_NAMED 1902-08-29 09:00:00 NR 21.1843 122.673 main 201 181 __________P___ -1 21.1843 122.673 7 6 342
1902241N21123 1902 32 WP MM NOT_NAMED 1902-08-29 12:00:00 NR 21.5049 122.590 main 181 175 __________P___ -1 21.5049 122.590 7 7 353
1902241N21123 1902 32 WP MM NOT_NAMED 1902-08-29 15:00:00 NR 21.8672 122.582 main 175 174 __________P___ -1 21.8672 122.582 7 7 3
1902241N21123 1902 32 WP MM NOT_NAMED 1902-08-29 16:00:00 NR 22.0000 122.600 main 174 158 __________O___ -1 22.0000 122.600 3 9 10
1902241N21123 1902 32 WP MM NOT_NAMED 1902-08-29 18:00:00 NR 22.2847 122.672 main 160 149 __________P___ -1 22.2847 122.672 3 9 17
1902241N21123 1902 32 WP MM NOT_NAMED 1902-08-29 21:00:00 NR 22.7436 122.843 main 150 153 __________P___ -1 22.7436 122.843 3 10 21
1902241N21123 1902 32 WP MM NOT_NAMED 1902-08-30 00:00:00 NR 23.2127 123.050 main 172 159 __________P___ -1 23.2127 123.050 3 10 22
1902241N21123 1902 32 WP MM NOT_NAMED 1902-08-30 03:00:00 NR 23.6607 123.246 main 159 162 __________P___ -1 23.6607 123.246 3 10 21
1902241N21123 1902 32 WP MM NOT_NAMED 1902-08-30 04:00:00 NR 23.8000 123.300 main 162 152 __________O___ -1 23.8000 123.300 4 8 16
1902241N21123 1902 32 WP MM NOT_NAMED 1902-08-30 06:00:00 NR 24.0477 123.365 main 161 152 __________P___ -1 24.0477 123.365 4 7 12
1902241N21123 1902 32 WP MM NOT_NAMED 1902-08-30 09:00:00 NR 24.3879 123.431 main 152 151 __________P___ -1 24.3879 123.431 4 7 8
1902241N21123 1902 32 WP MM NOT_NAMED 1902-08-30 12:00:00 NR 24.7016 123.469 main 154 151 __________P___ -1 24.7016 123.469 4 6 5
1902241N21123 1902 32 WP MM NOT_NAMED 1902-08-30 15:00:00 NR 25.0011 123.493 main 151 151 __________P___ -1 25.0011 123.493 4 6 4
1902241N21123 1902 32 WP MM NOT_NAMED 1902-08-30 16:00:00 NR 25.1000 123.500 main 151 151 __________O___ -1 25.1000 123.500 4 6 7
1902241N21123 1902 32 WP MM NOT_NAMED 1902-08-30 18:00:00 NR 25.3031 123.525 main 154 154 __________P___ -1 25.3031 123.525 4 6 7
1902241N21123 1902 32 WP MM NOT_NAMED 1902-08-30 21:00:00 NR 25.6013 123.556 main 174 174 __________P___ -1 25.6013 123.556 4 6 6
1902241N21123 1902 32 WP MM NOT_NAMED 1902-08-31 00:00:00 NR 25.8975 123.580 main 189 189 __________P___ -1 25.8975 123.580 4 6 3
1902241N21123 1902 32 WP MM NOT_NAMED 1902-08-31 03:00:00 NR 26.1979 123.596 main 208 208 __________P___ -1 26.1979 123.596 4 6 0
1902241N21123 1902 32 WP MM NOT_NAMED 1902-08-31 04:00:00 NR 26.3000 123.600 main 216 216 __________O___ -1 26.3000 123.600 4 6 5
1902241N21123 1902 32 WP MM NOT_NAMED 1902-08-31 06:00:00 NR 26.5083 123.608 main 231 231 __________P___ -1 26.5083 123.608 4 6 0
1902241N21123 1902 32 WP MM NOT_NAMED 1902-08-31 09:00:00 NR 26.8271 123.615 main 256 231 __________P___ -1 26.8271 123.615 4 6 2
1902241N21123 1902 32 WP MM NOT_NAMED 1902-08-31 12:00:00 NR 27.1533 123.613 main 231 215 __________P___ -1 27.1533 123.613 4 7 0
1902241N21123 1902 32 WP MM NOT_NAMED 1902-08-31 15:00:00 NR 27.4871 123.605 main 215 211 __________P___ -1 27.4871 123.605 4 7 0
1902241N21123 1902 32 WP MM NOT_NAMED 1902-08-31 16:00:00 NR 27.6000 123.600 main 211 203 __________O___ -1 27.6000 123.600 4 7 0
1902241N21123 1902 32 WP MM NOT_NAMED 1902-08-31 18:00:00 NR 27.8282 123.588 main 203 191 __________P___ -1 27.8282 123.588 4 7 355
1902241N21123 1902 32 WP MM NOT_NAMED 1902-08-31 21:00:00 NR 28.1756 123.566 main 191 165 __________P___ -1 28.1756 123.566 4 7 357
1902241N21123 1902 32 WP MM NOT_NAMED 1902-09-01 00:00:00 NR 28.5274 123.539 main 165 149 __________P___ -1 28.5274 123.539 4 7 356
1902241N21123 1902 32 WP MM NOT_NAMED 1902-09-01 03:00:00 NR 28.8817 123.510 main 149 147 __________P___ -1 28.8817 123.510 4 7 354
1902241N21123 1902 32 WP MM NOT_NAMED 1902-09-01 04:00:00 NR 29.0000 123.500 main 147 __________O___ -1 29.0000 123.500 4 7 355

Digital Typhoon Data and Search

About IBTrACS Database

This database is a web-friendly format of International Best Track Archive for Climate Stewardship (IBTrACS), a global best track data archive curated by NOAA dating back to 1842.

Updated: 2021-11-26